sensor_id;sensor_type;location;lat;lon;timestamp;temperature;humidity
21163;DHT22;10739;52.198;20.908;2023-05-17T00:01:51;14.10;99.90
21163;DHT22;10739;52.198;20.908;2023-05-17T00:04:18;14.10;99.90
21163;DHT22;10739;52.198;20.908;2023-05-17T00:06:44;14.00;99.90
21163;DHT22;10739;52.198;20.908;2023-05-17T00:09:11;14.00;99.90
21163;DHT22;10739;52.198;20.908;2023-05-17T00:11:38;13.90;99.90
21163;DHT22;10739;52.198;20.908;2023-05-17T00:14:04;13.90;99.90
21163;DHT22;10739;52.198;20.908;2023-05-17T00:16:31;13.80;99.90
21163;DHT22;10739;52.198;20.908;2023-05-17T00:18:57;13.80;99.90
21163;DHT22;10739;52.198;20.908;2023-05-17T00:21:24;13.80;99.90
21163;DHT22;10739;52.198;20.908;2023-05-17T00:23:50;13.90;99.90
21163;DHT22;10739;52.198;20.908;2023-05-17T00:26:17;14.00;99.90
21163;DHT22;10739;52.198;20.908;2023-05-17T00:28:47;14.10;99.90
21163;DHT22;10739;52.198;20.908;2023-05-17T00:31:13;14.10;99.90
21163;DHT22;10739;52.198;20.908;2023-05-17T00:33:40;14.10;99.90
21163;DHT22;10739;52.198;20.908;2023-05-17T00:36:07;14.10;99.90
21163;DHT22;10739;52.198;20.908;2023-05-17T00:38:34;14.10;99.90
21163;DHT22;10739;52.198;20.908;2023-05-17T00:41:00;14.10;99.90
21163;DHT22;10739;52.198;20.908;2023-05-17T00:43:26;14.20;99.90
21163;DHT22;10739;52.198;20.908;2023-05-17T00:45:53;14.10;99.90
21163;DHT22;10739;52.198;20.908;2023-05-17T00:48:19;14.20;99.90
21163;DHT22;10739;52.198;20.908;2023-05-17T00:50:46;14.10;99.90
21163;DHT22;10739;52.198;20.908;2023-05-17T00:53:13;14.00;99.90
21163;DHT22;10739;52.198;20.908;2023-05-17T00:55:42;14.00;99.90
21163;DHT22;10739;52.198;20.908;2023-05-17T00:58:10;14.00;99.90
21163;DHT22;10739;52.198;20.908;2023-05-17T01:00:37;14.10;99.90
21163;DHT22;10739;52.198;20.908;2023-05-17T01:03:04;13.90;99.90
21163;DHT22;10739;52.198;20.908;2023-05-17T01:05:31;14.00;99.90
21163;DHT22;10739;52.198;20.908;2023-05-17T01:07:58;13.80;99.90
21163;DHT22;10739;52.198;20.908;2023-05-17T01:10:51;13.80;99.90
21163;DHT22;10739;52.198;20.908;2023-05-17T01:13:18;13.80;99.90
21163;DHT22;10739;52.198;20.908;2023-05-17T01:16:13;13.70;99.90
21163;DHT22;10739;52.198;20.908;2023-05-17T01:18:53;13.70;99.90
21163;DHT22;10739;52.198;20.908;2023-05-17T01:28:03;13.50;99.90
21163;DHT22;10739;52.198;20.908;2023-05-17T01:30:32;13.50;99.90
21163;DHT22;10739;52.198;20.908;2023-05-17T01:32:59;13.40;99.90
21163;DHT22;10739;52.198;20.908;2023-05-17T01:35:28;13.40;99.90
21163;DHT22;10739;52.198;20.908;2023-05-17T01:37:55;13.40;99.90
21163;DHT22;10739;52.198;20.908;2023-05-17T01:40:22;13.40;99.90
21163;DHT22;10739;52.198;20.908;2023-05-17T01:46:29;13.30;99.90
21163;DHT22;10739;52.198;20.908;2023-05-17T01:57:50;13.10;99.90
21163;DHT22;10739;52.198;20.908;2023-05-17T02:00:20;13.10;99.90
21163;DHT22;10739;52.198;20.908;2023-05-17T02:02:48;13.00;99.90
21163;DHT22;10739;52.198;20.908;2023-05-17T02:05:14;13.00;99.90
21163;DHT22;10739;52.198;20.908;2023-05-17T02:07:40;13.00;99.90
21163;DHT22;10739;52.198;20.908;2023-05-17T02:10:07;13.00;99.90
21163;DHT22;10739;52.198;20.908;2023-05-17T02:12:34;13.00;99.90
21163;DHT22;10739;52.198;20.908;2023-05-17T02:15:00;12.90;99.90
21163;DHT22;10739;52.198;20.908;2023-05-17T02:17:26;12.90;99.90
21163;DHT22;10739;52.198;20.908;2023-05-17T02:19:52;12.90;99.90
21163;DHT22;10739;52.198;20.908;2023-05-17T02:22:19;12.90;99.90
21163;DHT22;10739;52.198;20.908;2023-05-17T02:24:45;12.80;99.90
21163;DHT22;10739;52.198;20.908;2023-05-17T02:27:12;12.80;99.90
21163;DHT22;10739;52.198;20.908;2023-05-17T02:29:38;12.80;99.90
21163;DHT22;10739;52.198;20.908;2023-05-17T02:32:05;12.80;99.90
21163;DHT22;10739;52.198;20.908;2023-05-17T02:34:31;12.70;99.90
21163;DHT22;10739;52.198;20.908;2023-05-17T02:36:58;12.70;99.90
21163;DHT22;10739;52.198;20.908;2023-05-17T02:39:24;12.70;99.90
21163;DHT22;10739;52.198;20.908;2023-05-17T02:41:50;12.70;99.90
21163;DHT22;10739;52.198;20.908;2023-05-17T02:44:16;12.70;99.90
21163;DHT22;10739;52.198;20.908;2023-05-17T02:46:43;12.70;99.90
21163;DHT22;10739;52.198;20.908;2023-05-17T02:49:09;12.70;99.90
21163;DHT22;10739;52.198;20.908;2023-05-17T02:51:35;12.70;99.90
21163;DHT22;10739;52.198;20.908;2023-05-17T02:54:02;12.70;99.90
21163;DHT22;10739;52.198;20.908;2023-05-17T02:56:28;12.60;99.90
21163;DHT22;10739;52.198;20.908;2023-05-17T02:58:54;12.70;99.90
21163;DHT22;10739;52.198;20.908;2023-05-17T03:01:22;12.60;99.90
21163;DHT22;10739;52.198;20.908;2023-05-17T03:03:48;12.60;99.90
21163;DHT22;10739;52.198;20.908;2023-05-17T03:06:15;12.60;99.90
21163;DHT22;10739;52.198;20.908;2023-05-17T03:08:41;12.60;99.90
21163;DHT22;10739;52.198;20.908;2023-05-17T03:11:07;12.60;99.90
21163;DHT22;10739;52.198;20.908;2023-05-17T03:13:34;12.60;99.90
21163;DHT22;10739;52.198;20.908;2023-05-17T03:16:00;12.70;99.90
21163;DHT22;10739;52.198;20.908;2023-05-17T03:18:27;12.70;99.90
21163;DHT22;10739;52.198;20.908;2023-05-17T03:20:53;12.60;99.90
21163;DHT22;10739;52.198;20.908;2023-05-17T03:23:19;12.70;99.90
21163;DHT22;10739;52.198;20.908;2023-05-17T03:25:46;12.70;99.90
21163;DHT22;10739;52.198;20.908;2023-05-17T03:28:12;12.70;99.90
21163;DHT22;10739;52.198;20.908;2023-05-17T03:30:38;12.70;99.90
21163;DHT22;10739;52.198;20.908;2023-05-17T03:33:05;12.70;99.90
21163;DHT22;10739;52.198;20.908;2023-05-17T03:35:31;12.70;99.90
21163;DHT22;10739;52.198;20.908;2023-05-17T03:37:57;12.60;99.90
21163;DHT22;10739;52.198;20.908;2023-05-17T03:40:24;12.60;99.90
21163;DHT22;10739;52.198;20.908;2023-05-17T03:42:50;12.60;99.90
21163;DHT22;10739;52.198;20.908;2023-05-17T03:45:17;12.60;99.90
21163;DHT22;10739;52.198;20.908;2023-05-17T03:47:43;12.60;99.90
21163;DHT22;10739;52.198;20.908;2023-05-17T03:50:10;12.60;99.90
21163;DHT22;10739;52.198;20.908;2023-05-17T03:52:36;12.60;99.90
21163;DHT22;10739;52.198;20.908;2023-05-17T03:55:03;12.60;99.90
21163;DHT22;10739;52.198;20.908;2023-05-17T03:57:31;12.60;99.90
21163;DHT22;10739;52.198;20.908;2023-05-17T03:59:57;12.60;99.90
21163;DHT22;10739;52.198;20.908;2023-05-17T04:02:24;12.50;99.90
21163;DHT22;10739;52.198;20.908;2023-05-17T04:04:50;12.50;99.90
21163;DHT22;10739;52.198;20.908;2023-05-17T04:07:17;12.60;99.90
21163;DHT22;10739;52.198;20.908;2023-05-17T04:09:44;12.50;99.90
21163;DHT22;10739;52.198;20.908;2023-05-17T04:12:10;12.50;99.90
21163;DHT22;10739;52.198;20.908;2023-05-17T04:14:37;12.50;99.90
21163;DHT22;10739;52.198;20.908;2023-05-17T04:17:03;12.50;99.90
21163;DHT22;10739;52.198;20.908;2023-05-17T04:19:30;12.50;99.90
21163;DHT22;10739;52.198;20.908;2023-05-17T04:21:56;12.50;99.90
21163;DHT22;10739;52.198;20.908;2023-05-17T04:24:22;12.50;99.90
21163;DHT22;10739;52.198;20.908;2023-05-17T04:26:49;12.50;99.90
21163;DHT22;10739;52.198;20.908;2023-05-17T04:29:15;12.50;99.90
21163;DHT22;10739;52.198;20.908;2023-05-17T04:31:41;12.60;99.90
21163;DHT22;10739;52.198;20.908;2023-05-17T04:34:08;12.60;99.90
21163;DHT22;10739;52.198;20.908;2023-05-17T04:36:34;12.50;99.90
21163;DHT22;10739;52.198;20.908;2023-05-17T04:39:00;12.60;99.90
21163;DHT22;10739;52.198;20.908;2023-05-17T04:41:27;12.50;99.90
21163;DHT22;10739;52.198;20.908;2023-05-17T04:43:54;12.50;99.90
21163;DHT22;10739;52.198;20.908;2023-05-17T04:46:20;12.50;99.90
21163;DHT22;10739;52.198;20.908;2023-05-17T04:48:46;12.40;99.90
21163;DHT22;10739;52.198;20.908;2023-05-17T04:51:12;12.50;99.90
21163;DHT22;10739;52.198;20.908;2023-05-17T04:53:38;12.50;99.90
21163;DHT22;10739;52.198;20.908;2023-05-17T04:56:05;12.50;99.90
21163;DHT22;10739;52.198;20.908;2023-05-17T04:58:31;12.60;99.90
21163;DHT22;10739;52.198;20.908;2023-05-17T05:00:58;12.60;99.90
21163;DHT22;10739;52.198;20.908;2023-05-17T05:03:24;12.60;99.90
21163;DHT22;10739;52.198;20.908;2023-05-17T05:05:51;12.50;99.90
21163;DHT22;10739;52.198;20.908;2023-05-17T05:08:17;12.50;99.90
21163;DHT22;10739;52.198;20.908;2023-05-17T05:10:43;12.60;99.90
21163;DHT22;10739;52.198;20.908;2023-05-17T05:13:13;12.50;99.90
21163;DHT22;10739;52.198;20.908;2023-05-17T05:15:55;12.50;99.90
21163;DHT22;10739;52.198;20.908;2023-05-17T05:18:35;12.50;99.90
21163;DHT22;10739;52.198;20.908;2023-05-17T05:21:06;12.50;99.90
21163;DHT22;10739;52.198;20.908;2023-05-17T05:23:32;12.60;99.90
21163;DHT22;10739;52.198;20.908;2023-05-17T05:25:59;12.50;99.90
21163;DHT22;10739;52.198;20.908;2023-05-17T05:28:26;12.50;99.90
21163;DHT22;10739;52.198;20.908;2023-05-17T05:30:59;12.50;99.90
21163;DHT22;10739;52.198;20.908;2023-05-17T05:33:26;12.50;99.90
21163;DHT22;10739;52.198;20.908;2023-05-17T05:35:52;12.50;99.90
21163;DHT22;10739;52.198;20.908;2023-05-17T05:38:23;12.50;99.90
21163;DHT22;10739;52.198;20.908;2023-05-17T05:40:49;12.50;99.90
21163;DHT22;10739;52.198;20.908;2023-05-17T05:43:16;12.50;99.90
21163;DHT22;10739;52.198;20.908;2023-05-17T05:45:42;12.50;99.90
21163;DHT22;10739;52.198;20.908;2023-05-17T05:48:12;12.50;99.90
21163;DHT22;10739;52.198;20.908;2023-05-17T05:50:41;12.60;99.90
21163;DHT22;10739;52.198;20.908;2023-05-17T05:53:09;12.60;99.90
21163;DHT22;10739;52.198;20.908;2023-05-17T05:55:40;12.60;99.90
21163;DHT22;10739;52.198;20.908;2023-05-17T05:58:07;12.60;99.90
21163;DHT22;10739;52.198;20.908;2023-05-17T06:00:34;12.60;99.90
21163;DHT22;10739;52.198;20.908;2023-05-17T06:03:01;12.70;99.90
21163;DHT22;10739;52.198;20.908;2023-05-17T06:05:28;12.70;99.90
21163;DHT22;10739;52.198;20.908;2023-05-17T06:07:57;12.60;99.90
21163;DHT22;10739;52.198;20.908;2023-05-17T06:10:23;12.60;99.90
21163;DHT22;10739;52.198;20.908;2023-05-17T06:12:49;12.60;99.90
21163;DHT22;10739;52.198;20.908;2023-05-17T06:15:16;12.60;99.90
21163;DHT22;10739;52.198;20.908;2023-05-17T06:17:42;12.60;99.90
21163;DHT22;10739;52.198;20.908;2023-05-17T06:20:09;12.60;99.90
21163;DHT22;10739;52.198;20.908;2023-05-17T06:22:35;12.50;99.90
21163;DHT22;10739;52.198;20.908;2023-05-17T06:25:02;12.50;99.90
21163;DHT22;10739;52.198;20.908;2023-05-17T06:27:30;12.60;99.90
21163;DHT22;10739;52.198;20.908;2023-05-17T06:29:58;12.60;99.90
21163;DHT22;10739;52.198;20.908;2023-05-17T06:32:25;12.50;99.90
21163;DHT22;10739;52.198;20.908;2023-05-17T06:34:51;12.50;99.90
21163;DHT22;10739;52.198;20.908;2023-05-17T06:37:18;12.50;99.90
21163;DHT22;10739;52.198;20.908;2023-05-17T06:39:44;12.50;99.90
21163;DHT22;10739;52.198;20.908;2023-05-17T06:42:10;12.60;99.90
21163;DHT22;10739;52.198;20.908;2023-05-17T06:44:36;12.60;99.90
21163;DHT22;10739;52.198;20.908;2023-05-17T06:47:03;12.60;99.90
21163;DHT22;10739;52.198;20.908;2023-05-17T06:49:29;12.60;99.90
21163;DHT22;10739;52.198;20.908;2023-05-17T06:51:55;12.60;99.90
21163;DHT22;10739;52.198;20.908;2023-05-17T06:54:28;12.60;99.90
21163;DHT22;10739;52.198;20.908;2023-05-17T06:57:01;12.70;99.90
21163;DHT22;10739;52.198;20.908;2023-05-17T06:59:27;12.70;99.90
21163;DHT22;10739;52.198;20.908;2023-05-17T07:01:54;12.70;99.90
21163;DHT22;10739;52.198;20.908;2023-05-17T07:04:20;12.70;99.90
21163;DHT22;10739;52.198;20.908;2023-05-17T07:06:47;12.70;99.90
21163;DHT22;10739;52.198;20.908;2023-05-17T07:09:13;12.70;99.90
21163;DHT22;10739;52.198;20.908;2023-05-17T07:11:40;12.70;99.90
21163;DHT22;10739;52.198;20.908;2023-05-17T07:14:06;12.60;99.90
21163;DHT22;10739;52.198;20.908;2023-05-17T07:16:32;12.60;99.90
21163;DHT22;10739;52.198;20.908;2023-05-17T07:18:58;12.60;99.90
21163;DHT22;10739;52.198;20.908;2023-05-17T07:21:25;12.60;99.90
21163;DHT22;10739;52.198;20.908;2023-05-17T07:23:51;12.60;99.90
21163;DHT22;10739;52.198;20.908;2023-05-17T07:26:19;12.60;99.90
21163;DHT22;10739;52.198;20.908;2023-05-17T07:29:21;12.50;99.90
21163;DHT22;10739;52.198;20.908;2023-05-17T07:31:48;12.50;99.90
21163;DHT22;10739;52.198;20.908;2023-05-17T07:34:14;12.50;99.90
21163;DHT22;10739;52.198;20.908;2023-05-17T07:36:40;12.70;99.90
21163;DHT22;10739;52.198;20.908;2023-05-17T07:39:06;12.70;99.90
21163;DHT22;10739;52.198;20.908;2023-05-17T07:41:33;12.60;99.90
21163;DHT22;10739;52.198;20.908;2023-05-17T07:44:00;12.50;99.90
21163;DHT22;10739;52.198;20.908;2023-05-17T07:46:26;12.50;99.90
21163;DHT22;10739;52.198;20.908;2023-05-17T07:48:53;12.60;99.90
21163;DHT22;10739;52.198;20.908;2023-05-17T07:51:19;12.70;99.90
21163;DHT22;10739;52.198;20.908;2023-05-17T07:53:46;12.60;99.90
21163;DHT22;10739;52.198;20.908;2023-05-17T07:56:12;12.70;99.90
21163;DHT22;10739;52.198;20.908;2023-05-17T07:58:38;12.70;99.90
21163;DHT22;10739;52.198;20.908;2023-05-17T08:01:05;12.80;99.90
21163;DHT22;10739;52.198;20.908;2023-05-17T08:03:31;12.70;99.90
21163;DHT22;10739;52.198;20.908;2023-05-17T08:05:58;12.80;99.90
21163;DHT22;10739;52.198;20.908;2023-05-17T08:08:24;12.80;99.90
21163;DHT22;10739;52.198;20.908;2023-05-17T08:10:50;12.70;99.90
21163;DHT22;10739;52.198;20.908;2023-05-17T08:13:17;12.70;99.90
21163;DHT22;10739;52.198;20.908;2023-05-17T08:15:43;12.70;99.90
21163;DHT22;10739;52.198;20.908;2023-05-17T08:18:09;12.70;99.90
21163;DHT22;10739;52.198;20.908;2023-05-17T08:20:36;12.70;99.90
21163;DHT22;10739;52.198;20.908;2023-05-17T08:23:02;12.70;99.90
21163;DHT22;10739;52.198;20.908;2023-05-17T08:25:29;12.70;99.90
21163;DHT22;10739;52.198;20.908;2023-05-17T08:27:55;12.80;99.90
21163;DHT22;10739;52.198;20.908;2023-05-17T08:30:21;12.80;99.90
21163;DHT22;10739;52.198;20.908;2023-05-17T08:32:48;12.90;99.90
21163;DHT22;10739;52.198;20.908;2023-05-17T08:35:14;12.80;99.90
21163;DHT22;10739;52.198;20.908;2023-05-17T08:37:40;12.80;99.90
21163;DHT22;10739;52.198;20.908;2023-05-17T08:40:08;12.80;99.90
21163;DHT22;10739;52.198;20.908;2023-05-17T08:42:35;12.80;99.90
21163;DHT22;10739;52.198;20.908;2023-05-17T08:45:03;12.80;99.90
21163;DHT22;10739;52.198;20.908;2023-05-17T08:47:31;12.80;99.90
21163;DHT22;10739;52.198;20.908;2023-05-17T08:50:02;12.70;99.90
21163;DHT22;10739;52.198;20.908;2023-05-17T08:52:31;12.80;99.90
21163;DHT22;10739;52.198;20.908;2023-05-17T08:54:58;12.80;99.90
21163;DHT22;10739;52.198;20.908;2023-05-17T08:57:33;12.80;99.90
21163;DHT22;10739;52.198;20.908;2023-05-17T09:00:04;12.80;99.90
21163;DHT22;10739;52.198;20.908;2023-05-17T09:02:37;12.90;99.90
21163;DHT22;10739;52.198;20.908;2023-05-17T09:05:05;12.90;99.90
21163;DHT22;10739;52.198;20.908;2023-05-17T09:07:32;12.70;99.90
21163;DHT22;10739;52.198;20.908;2023-05-17T09:09:58;12.80;99.90
21163;DHT22;10739;52.198;20.908;2023-05-17T09:12:25;12.90;99.90
21163;DHT22;10739;52.198;20.908;2023-05-17T09:14:51;12.80;99.90
21163;DHT22;10739;52.198;20.908;2023-05-17T09:17:19;12.60;99.90
21163;DHT22;10739;52.198;20.908;2023-05-17T09:19:47;12.60;99.90
21163;DHT22;10739;52.198;20.908;2023-05-17T09:22:18;12.50;99.90
21163;DHT22;10739;52.198;20.908;2023-05-17T09:24:46;12.50;99.90
21163;DHT22;10739;52.198;20.908;2023-05-17T09:27:18;12.70;99.90
21163;DHT22;10739;52.198;20.908;2023-05-17T09:29:46;12.80;99.90
21163;DHT22;10739;52.198;20.908;2023-05-17T09:32:17;12.90;99.90
21163;DHT22;10739;52.198;20.908;2023-05-17T09:34:45;12.90;99.90
21163;DHT22;10739;52.198;20.908;2023-05-17T09:37:18;12.80;99.90
21163;DHT22;10739;52.198;20.908;2023-05-17T09:39:46;12.80;99.90
21163;DHT22;10739;52.198;20.908;2023-05-17T09:42:14;12.70;99.90
21163;DHT22;10739;52.198;20.908;2023-05-17T09:44:56;12.60;99.90
21163;DHT22;10739;52.198;20.908;2023-05-17T09:47:26;12.50;99.90
21163;DHT22;10739;52.198;20.908;2023-05-17T09:49:59;12.40;99.90
21163;DHT22;10739;52.198;20.908;2023-05-17T09:52:28;12.30;99.90
21163;DHT22;10739;52.198;20.908;2023-05-17T09:55:00;12.30;99.90
21163;DHT22;10739;52.198;20.908;2023-05-17T09:57:27;12.20;99.90
21163;DHT22;10739;52.198;20.908;2023-05-17T10:00:02;12.20;99.90
21163;DHT22;10739;52.198;20.908;2023-05-17T10:02:38;12.10;99.90
21163;DHT22;10739;52.198;20.908;2023-05-17T10:05:10;12.00;99.90
21163;DHT22;10739;52.198;20.908;2023-05-17T10:07:37;12.00;99.90
21163;DHT22;10739;52.198;20.908;2023-05-17T10:10:06;12.00;99.90
21163;DHT22;10739;52.198;20.908;2023-05-17T10:12:35;11.90;99.90
21163;DHT22;10739;52.198;20.908;2023-05-17T10:15:04;11.90;99.90
21163;DHT22;10739;52.198;20.908;2023-05-17T10:17:32;12.00;99.90
21163;DHT22;10739;52.198;20.908;2023-05-17T10:20:00;12.00;99.90
21163;DHT22;10739;52.198;20.908;2023-05-17T10:22:31;12.00;99.90
21163;DHT22;10739;52.198;20.908;2023-05-17T10:24:58;12.00;99.90
21163;DHT22;10739;52.198;20.908;2023-05-17T10:27:25;11.90;99.90
21163;DHT22;10739;52.198;20.908;2023-05-17T10:29:53;11.90;99.90
21163;DHT22;10739;52.198;20.908;2023-05-17T10:32:20;11.80;99.90
21163;DHT22;10739;52.198;20.908;2023-05-17T10:34:51;12.00;99.90
21163;DHT22;10739;52.198;20.908;2023-05-17T10:37:20;11.90;99.90
21163;DHT22;10739;52.198;20.908;2023-05-17T10:39:55;12.00;99.90
21163;DHT22;10739;52.198;20.908;2023-05-17T10:42:22;12.00;99.90
21163;DHT22;10739;52.198;20.908;2023-05-17T10:44:52;12.10;99.90
21163;DHT22;10739;52.198;20.908;2023-05-17T10:47:19;12.10;99.90
21163;DHT22;10739;52.198;20.908;2023-05-17T10:49:45;12.10;99.90
21163;DHT22;10739;52.198;20.908;2023-05-17T10:52:19;12.20;99.90
21163;DHT22;10739;52.198;20.908;2023-05-17T10:54:48;12.10;99.90
21163;DHT22;10739;52.198;20.908;2023-05-17T10:57:41;12.10;99.90
21163;DHT22;10739;52.198;20.908;2023-05-17T11:00:08;12.20;99.90
21163;DHT22;10739;52.198;20.908;2023-05-17T11:02:45;12.20;99.90
21163;DHT22;10739;52.198;20.908;2023-05-17T11:05:22;12.20;99.90
21163;DHT22;10739;52.198;20.908;2023-05-17T11:08:11;12.30;99.90
21163;DHT22;10739;52.198;20.908;2023-05-17T11:11:09;12.40;99.90
21163;DHT22;10739;52.198;20.908;2023-05-17T11:14:03;12.50;99.90
21163;DHT22;10739;52.198;20.908;2023-05-17T11:16:35;12.50;99.90
21163;DHT22;10739;52.198;20.908;2023-05-17T11:19:10;12.40;99.90
21163;DHT22;10739;52.198;20.908;2023-05-17T11:21:47;12.40;99.90
21163;DHT22;10739;52.198;20.908;2023-05-17T11:24:24;12.40;99.90
21163;DHT22;10739;52.198;20.908;2023-05-17T11:26:54;12.30;99.90
21163;DHT22;10739;52.198;20.908;2023-05-17T11:29:27;12.30;99.90
21163;DHT22;10739;52.198;20.908;2023-05-17T11:31:55;12.30;99.90
21163;DHT22;10739;52.198;20.908;2023-05-17T11:34:21;12.30;99.90
21163;DHT22;10739;52.198;20.908;2023-05-17T11:36:51;12.30;99.90
21163;DHT22;10739;52.198;20.908;2023-05-17T11:39:23;12.20;99.90
21163;DHT22;10739;52.198;20.908;2023-05-17T11:41:52;12.20;99.90
21163;DHT22;10739;52.198;20.908;2023-05-17T11:44:30;12.30;99.90
21163;DHT22;10739;52.198;20.908;2023-05-17T11:47:05;12.20;99.90
21163;DHT22;10739;52.198;20.908;2023-05-17T11:49:37;12.20;99.90
21163;DHT22;10739;52.198;20.908;2023-05-17T11:52:04;12.30;99.90
21163;DHT22;10739;52.198;20.908;2023-05-17T11:54:31;12.20;99.90
21163;DHT22;10739;52.198;20.908;2023-05-17T11:56:59;12.20;99.90
21163;DHT22;10739;52.198;20.908;2023-05-17T11:59:27;12.20;99.90
21163;DHT22;10739;52.198;20.908;2023-05-17T12:01:53;12.20;99.90
21163;DHT22;10739;52.198;20.908;2023-05-17T12:04:25;12.20;99.90
21163;DHT22;10739;52.198;20.908;2023-05-17T12:06:53;12.30;99.90
21163;DHT22;10739;52.198;20.908;2023-05-17T12:09:23;12.20;99.90
21163;DHT22;10739;52.198;20.908;2023-05-17T12:11:51;12.40;99.90
21163;DHT22;10739;52.198;20.908;2023-05-17T12:14:18;12.40;99.90
21163;DHT22;10739;52.198;20.908;2023-05-17T12:16:52;12.50;99.90
21163;DHT22;10739;52.198;20.908;2023-05-17T12:19:23;12.50;99.90
21163;DHT22;10739;52.198;20.908;2023-05-17T12:21:51;12.50;99.90
21163;DHT22;10739;52.198;20.908;2023-05-17T12:24:18;12.70;99.90
21163;DHT22;10739;52.198;20.908;2023-05-17T12:26:45;12.70;99.90
21163;DHT22;10739;52.198;20.908;2023-05-17T12:29:13;12.80;99.90
21163;DHT22;10739;52.198;20.908;2023-05-17T12:31:47;12.80;99.90
21163;DHT22;10739;52.198;20.908;2023-05-17T12:34:16;12.80;99.90
21163;DHT22;10739;52.198;20.908;2023-05-17T12:36:43;12.80;99.90
21163;DHT22;10739;52.198;20.908;2023-05-17T12:39:11;12.80;99.90
21163;DHT22;10739;52.198;20.908;2023-05-17T12:41:38;12.80;99.90
21163;DHT22;10739;52.198;20.908;2023-05-17T12:44:10;12.80;99.90
21163;DHT22;10739;52.198;20.908;2023-05-17T12:46:40;12.70;99.90
21163;DHT22;10739;52.198;20.908;2023-05-17T12:49:08;12.80;99.90
21163;DHT22;10739;52.198;20.908;2023-05-17T12:51:43;12.70;99.90
21163;DHT22;10739;52.198;20.908;2023-05-17T12:54:27;12.70;99.90
21163;DHT22;10739;52.198;20.908;2023-05-17T12:56:57;12.80;99.90
21163;DHT22;10739;52.198;20.908;2023-05-17T12:59:51;12.80;99.90
21163;DHT22;10739;52.198;20.908;2023-05-17T13:02:18;12.70;99.90
21163;DHT22;10739;52.198;20.908;2023-05-17T13:04:48;12.70;99.90
21163;DHT22;10739;52.198;20.908;2023-05-17T13:07:23;12.70;99.90
21163;DHT22;10739;52.198;20.908;2023-05-17T13:09:50;12.70;99.90
21163;DHT22;10739;52.198;20.908;2023-05-17T13:12:22;12.80;99.90
21163;DHT22;10739;52.198;20.908;2023-05-17T13:14:50;11.40;99.90
21163;DHT22;10739;52.198;20.908;2023-05-17T13:19:50;12.80;99.90
21163;DHT22;10739;52.198;20.908;2023-05-17T13:22:22;12.90;99.90
21163;DHT22;10739;52.198;20.908;2023-05-17T13:24:50;12.80;99.90
21163;DHT22;10739;52.198;20.908;2023-05-17T13:27:17;12.80;99.90
21163;DHT22;10739;52.198;20.908;2023-05-17T13:29:45;12.80;99.90
21163;DHT22;10739;52.198;20.908;2023-05-17T13:32:12;12.90;99.90
21163;DHT22;10739;52.198;20.908;2023-05-17T13:34:39;13.00;99.90
21163;DHT22;10739;52.198;20.908;2023-05-17T13:37:07;13.00;99.90
21163;DHT22;10739;52.198;20.908;2023-05-17T13:39:34;13.10;99.90
21163;DHT22;10739;52.198;20.908;2023-05-17T13:42:00;13.20;99.90
21163;DHT22;10739;52.198;20.908;2023-05-17T13:44:28;13.30;99.90
21163;DHT22;10739;52.198;20.908;2023-05-17T13:46:54;13.20;99.90
21163;DHT22;10739;52.198;20.908;2023-05-17T13:49:21;13.20;99.90
21163;DHT22;10739;52.198;20.908;2023-05-17T13:51:48;13.10;99.90
21163;DHT22;10739;52.198;20.908;2023-05-17T13:54:16;13.20;99.90
21163;DHT22;10739;52.198;20.908;2023-05-17T13:56:45;13.20;99.90
21163;DHT22;10739;52.198;20.908;2023-05-17T13:59:12;13.30;99.90
21163;DHT22;10739;52.198;20.908;2023-05-17T14:01:39;13.30;99.90
21163;DHT22;10739;52.198;20.908;2023-05-17T14:04:09;13.30;99.90
21163;DHT22;10739;52.198;20.908;2023-05-17T14:06:37;13.30;99.90
21163;DHT22;10739;52.198;20.908;2023-05-17T14:09:04;13.40;99.90
21163;DHT22;10739;52.198;20.908;2023-05-17T14:11:31;13.40;99.90
21163;DHT22;10739;52.198;20.908;2023-05-17T14:13:57;13.50;99.90
21163;DHT22;10739;52.198;20.908;2023-05-17T14:16:26;13.50;99.90
21163;DHT22;10739;52.198;20.908;2023-05-17T14:18:52;13.40;99.90
21163;DHT22;10739;52.198;20.908;2023-05-17T14:21:22;13.30;99.90
21163;DHT22;10739;52.198;20.908;2023-05-17T14:23:49;13.40;99.90
21163;DHT22;10739;52.198;20.908;2023-05-17T14:26:15;13.20;99.90
21163;DHT22;10739;52.198;20.908;2023-05-17T14:28:42;13.20;99.90
21163;DHT22;10739;52.198;20.908;2023-05-17T14:31:09;13.30;99.90
21163;DHT22;10739;52.198;20.908;2023-05-17T14:33:35;13.30;99.90
21163;DHT22;10739;52.198;20.908;2023-05-17T14:36:02;13.40;99.90
21163;DHT22;10739;52.198;20.908;2023-05-17T14:38:29;13.40;99.90
21163;DHT22;10739;52.198;20.908;2023-05-17T14:40:57;13.30;99.90
21163;DHT22;10739;52.198;20.908;2023-05-17T14:43:26;13.20;99.90
21163;DHT22;10739;52.198;20.908;2023-05-17T14:45:53;13.10;99.90
21163;DHT22;10739;52.198;20.908;2023-05-17T14:48:19;13.00;99.90
21163;DHT22;10739;52.198;20.908;2023-05-17T14:50:46;12.90;99.90
21163;DHT22;10739;52.198;20.908;2023-05-17T14:53:12;12.80;99.90
21163;DHT22;10739;52.198;20.908;2023-05-17T14:55:38;12.70;99.90
21163;DHT22;10739;52.198;20.908;2023-05-17T14:58:05;12.70;99.90
21163;DHT22;10739;52.198;20.908;2023-05-17T15:00:31;12.60;99.90
21163;DHT22;10739;52.198;20.908;2023-05-17T15:02:58;12.60;99.90
21163;DHT22;10739;52.198;20.908;2023-05-17T15:05:24;12.50;99.90
21163;DHT22;10739;52.198;20.908;2023-05-17T15:07:51;12.50;99.90
21163;DHT22;10739;52.198;20.908;2023-05-17T15:10:17;12.50;99.90
21163;DHT22;10739;52.198;20.908;2023-05-17T15:12:44;12.50;99.90
21163;DHT22;10739;52.198;20.908;2023-05-17T15:15:10;12.60;99.90
21163;DHT22;10739;52.198;20.908;2023-05-17T15:17:37;12.50;99.90
21163;DHT22;10739;52.198;20.908;2023-05-17T15:20:03;12.50;99.90
21163;DHT22;10739;52.198;20.908;2023-05-17T15:22:31;12.60;99.90
21163;DHT22;10739;52.198;20.908;2023-05-17T15:24:57;12.50;99.90
21163;DHT22;10739;52.198;20.908;2023-05-17T15:27:24;12.50;99.90
21163;DHT22;10739;52.198;20.908;2023-05-17T15:29:50;12.60;99.90
21163;DHT22;10739;52.198;20.908;2023-05-17T15:32:17;12.50;99.90
21163;DHT22;10739;52.198;20.908;2023-05-17T15:34:43;12.50;99.90
21163;DHT22;10739;52.198;20.908;2023-05-17T15:37:10;12.50;99.90
21163;DHT22;10739;52.198;20.908;2023-05-17T15:39:36;12.50;99.90
21163;DHT22;10739;52.198;20.908;2023-05-17T15:42:03;12.40;99.90
21163;DHT22;10739;52.198;20.908;2023-05-17T15:44:29;12.50;99.90